createdAt,value
2023-03-10T00:01:24.574Z,-14.13
2023-03-10T00:03:51.177Z,-14.14
2023-03-10T00:06:19.673Z,-14.09
2023-03-10T00:08:46.505Z,-14.08
2023-03-10T00:11:13.238Z,-14.09
2023-03-10T00:13:41.096Z,-14.12
2023-03-10T00:16:08.087Z,-14.02
2023-03-10T00:18:36.022Z,-14.06
2023-03-10T00:21:02.569Z,-14.17
2023-03-10T00:23:29.105Z,-14.21
2023-03-10T00:25:56.018Z,-14.27
2023-03-10T00:28:23.801Z,-14.61
2023-03-10T00:30:58.433Z,-15.13
2023-03-10T00:33:25.964Z,-15.48
2023-03-10T00:36:01.110Z,-15.78
2023-03-10T00:38:27.598Z,-15.60
2023-03-10T00:41:20.414Z,-15.46
2023-03-10T00:43:47.028Z,-15.21
2023-03-10T00:46:13.906Z,-15.46
2023-03-10T00:48:41.947Z,-15.60
2023-03-10T00:51:10.404Z,-15.40
2023-03-10T00:53:38.019Z,-15.67
2023-03-10T00:56:11.316Z,-15.80
2023-03-10T00:58:37.804Z,-15.67
2023-03-10T01:01:05.002Z,-15.54
2023-03-10T01:03:31.560Z,-15.70
2023-03-10T01:05:58.198Z,-15.51
2023-03-10T01:08:24.803Z,-15.25
2023-03-10T01:10:51.274Z,-15.61
2023-03-10T01:13:19.746Z,-15.53
2023-03-10T01:15:48.648Z,-15.66
2023-03-10T01:18:16.935Z,-16.00
2023-03-10T01:20:43.872Z,-16.36
2023-03-10T01:23:22.044Z,-16.57
2023-03-10T01:25:48.931Z,-16.65
2023-03-10T01:28:15.937Z,-16.44
2023-03-10T01:30:42.817Z,-16.50
2023-03-10T01:33:09.991Z,-16.37
2023-03-10T01:35:38.256Z,-15.92
2023-03-10T01:38:05.159Z,-16.39
2023-03-10T01:40:31.910Z,-16.59
2023-03-10T01:43:17.265Z,-16.52
2023-03-10T01:45:46.775Z,-16.30
2023-03-10T01:48:14.088Z,-16.14
2023-03-10T01:50:41.887Z,-15.93
2023-03-10T01:53:08.718Z,-15.65
2023-03-10T01:55:38.549Z,-15.27
2023-03-10T01:58:05.907Z,-15.40
2023-03-10T02:00:33.882Z,-16.16
2023-03-10T02:03:00.330Z,-16.69
2023-03-10T02:05:28.729Z,-16.55
2023-03-10T02:07:55.894Z,-16.62
2023-03-10T02:10:22.373Z,-16.59
2023-03-10T02:12:48.815Z,-16.62
2023-03-10T02:15:16.750Z,-16.91
2023-03-10T02:17:43.406Z,-16.73
2023-03-10T02:20:14.459Z,-16.22
2023-03-10T02:22:41.097Z,-15.81
2023-03-10T02:25:08.796Z,-15.83
2023-03-10T02:27:38.464Z,-16.08
2023-03-10T02:30:07.940Z,-16.34
2023-03-10T02:32:36.738Z,-16.25
2023-03-10T02:35:03.824Z,-16.49
2023-03-10T02:37:32.151Z,-16.87
2023-03-10T02:39:58.945Z,-16.38
2023-03-10T02:42:26.906Z,-16.44
2023-03-10T02:44:54.106Z,-16.57
2023-03-10T02:47:20.696Z,-16.77
2023-03-10T02:49:47.159Z,-16.89
2023-03-10T02:52:27.160Z,-17.23
2023-03-10T02:54:53.613Z,-17.17
2023-03-10T02:57:20.301Z,-17.23
2023-03-10T02:59:46.736Z,-17.22
2023-03-10T03:02:13.246Z,-17.13
2023-03-10T03:04:39.729Z,-16.81
2023-03-10T03:07:06.170Z,-17.05
2023-03-10T03:09:34.146Z,-16.75
2023-03-10T03:12:01.391Z,-16.99
2023-03-10T03:14:27.877Z,-17.20
2023-03-10T03:16:55.823Z,-17.28
2023-03-10T03:19:22.305Z,-17.16
2023-03-10T03:21:51.265Z,-17.01
2023-03-10T03:24:22.041Z,-16.68
2023-03-10T03:26:48.603Z,-16.68
2023-03-10T03:29:15.323Z,-17.02
2023-03-10T03:31:41.957Z,-17.25
2023-03-10T03:34:08.456Z,-17.30
2023-03-10T03:36:35.019Z,-17.26
2023-03-10T03:39:02.833Z,-16.71
2023-03-10T03:41:29.305Z,-16.40
2023-03-10T03:43:55.780Z,-16.31
2023-03-10T03:46:22.255Z,-16.74
2023-03-10T03:48:48.870Z,-16.99
2023-03-10T03:51:15.353Z,-17.07
2023-03-10T03:53:42.106Z,-17.12
2023-03-10T03:56:09.911Z,-17.37
2023-03-10T03:58:36.342Z,-17.46
2023-03-10T04:01:02.808Z,-17.24
2023-03-10T04:03:29.402Z,-17.46
2023-03-10T04:05:55.901Z,-17.54
2023-03-10T04:08:22.335Z,-17.57
2023-03-10T04:10:52.193Z,-17.35
2023-03-10T04:13:18.708Z,-17.32
2023-03-10T04:15:45.237Z,-17.36
2023-03-10T04:18:12.134Z,-17.54
2023-03-10T04:20:38.797Z,-17.66
2023-03-10T04:23:05.234Z,-17.56
2023-03-10T04:25:33.497Z,-17.54
2023-03-10T04:27:59.960Z,-17.57
2023-03-10T04:30:30.779Z,-17.60
2023-03-10T04:33:00.964Z,-17.52
2023-03-10T04:35:27.744Z,-17.79
2023-03-10T04:37:54.214Z,-17.59
2023-03-10T04:40:20.796Z,-17.21
2023-03-10T04:42:47.388Z,-17.04
2023-03-10T04:45:13.957Z,-17.08
2023-03-10T04:47:40.563Z,-17.31
2023-03-10T04:50:07.269Z,-17.34
2023-03-10T04:52:33.742Z,-17.64
2023-03-10T04:55:00.220Z,-17.80
2023-03-10T04:57:26.954Z,-17.77
2023-03-10T04:59:53.521Z,-17.68
2023-03-10T05:02:20.520Z,-17.42
2023-03-10T05:04:47.150Z,-17.19
2023-03-10T05:07:14.900Z,-17.16
2023-03-10T05:09:41.369Z,-16.87
2023-03-10T05:12:09.979Z,-16.46
2023-03-10T05:14:37.126Z,-16.21
2023-03-10T05:17:04.027Z,-16.66
2023-03-10T05:19:30.503Z,-17.19
2023-03-10T05:21:57.033Z,-17.60
2023-03-10T05:24:23.495Z,-17.68
2023-03-10T05:26:51.117Z,-17.70
2023-03-10T05:29:17.620Z,-17.97
2023-03-10T05:31:45.487Z,-17.80
2023-03-10T05:34:13.834Z,-17.88
2023-03-10T05:36:40.812Z,-17.30
2023-03-10T05:39:09.004Z,-16.69
2023-03-10T05:41:36.377Z,-17.23
2023-03-10T05:44:03.180Z,-17.58
2023-03-10T05:46:29.878Z,-17.60
2023-03-10T05:48:57.048Z,-17.72
2023-03-10T05:51:24.679Z,-17.88
2023-03-10T05:53:52.234Z,-18.07
2023-03-10T05:56:19.481Z,-18.10
2023-03-10T05:58:49.496Z,-18.08
2023-03-10T06:01:16.010Z,-18.05
2023-03-10T06:03:42.758Z,-17.90
2023-03-10T06:06:09.342Z,-17.85
2023-03-10T06:08:35.944Z,-17.76
2023-03-10T06:11:02.580Z,-17.33
2023-03-10T06:13:29.028Z,-17.30
2023-03-10T06:15:57.012Z,-17.08
2023-03-10T06:18:23.997Z,-16.69
2023-03-10T06:20:50.783Z,-16.55
2023-03-10T06:23:17.378Z,-16.65
2023-03-10T06:25:45.302Z,-16.78
2023-03-10T06:28:12.879Z,-16.79
2023-03-10T06:30:39.367Z,-16.83
2023-03-10T06:33:05.935Z,-16.92
2023-03-10T06:35:32.443Z,-16.84
2023-03-10T06:37:58.965Z,-16.68
2023-03-10T06:40:25.459Z,-16.07
2023-03-10T06:42:51.945Z,-15.34
2023-03-10T06:45:18.459Z,-15.15
2023-03-10T06:47:44.953Z,-15.06
2023-03-10T06:50:11.973Z,-15.69
2023-03-10T06:52:38.440Z,-16.34
2023-03-10T06:55:05.174Z,-15.59
2023-03-10T06:57:31.696Z,-14.90
2023-03-10T06:59:58.183Z,-14.48
2023-03-10T07:02:24.662Z,-14.35
2023-03-10T07:04:51.236Z,-14.35
2023-03-10T07:07:17.814Z,-14.49
2023-03-10T07:09:46.141Z,-14.22
2023-03-10T07:12:14.209Z,-14.50
2023-03-10T07:14:40.654Z,-14.88
2023-03-10T07:17:07.767Z,-14.74
2023-03-10T07:19:34.313Z,-14.23
2023-03-10T07:22:00.759Z,-13.89
2023-03-10T07:24:27.235Z,-14.12
2023-03-10T07:26:54.470Z,-14.51
2023-03-10T07:29:22.218Z,-14.67
2023-03-10T07:31:48.652Z,-14.64
2023-03-10T07:34:15.143Z,-14.49
2023-03-10T07:36:41.644Z,-14.33
2023-03-10T07:39:08.241Z,-14.32
2023-03-10T07:41:34.830Z,-14.23
2023-03-10T07:44:01.305Z,-14.13
2023-03-10T07:46:27.903Z,-14.01
2023-03-10T07:48:55.654Z,-13.90
2023-03-10T07:51:22.311Z,-13.74
2023-03-10T07:53:48.798Z,-13.53
2023-03-10T07:56:15.464Z,-13.40
2023-03-10T07:58:43.590Z,-13.31
2023-03-10T08:01:15.109Z,-13.23
2023-03-10T08:03:41.759Z,-13.07
2023-03-10T08:06:08.262Z,-12.84
2023-03-10T08:08:34.783Z,-12.36
2023-03-10T08:11:05.200Z,-11.89
2023-03-10T08:13:32.078Z,-11.97
2023-03-10T08:16:02.104Z,-11.63
2023-03-10T08:18:29.584Z,-11.19
2023-03-10T08:20:56.810Z,-11.06
2023-03-10T08:23:24.321Z,-11.05
2023-03-10T08:25:51.284Z,-11.18
2023-03-10T08:28:18.412Z,-11.18
2023-03-10T08:31:02.579Z,-10.77
2023-03-10T08:33:32.082Z,-10.29
2023-03-10T08:36:09.578Z,-10.08
2023-03-10T08:38:38.749Z,-9.92
2023-03-10T08:41:14.423Z,-9.80
2023-03-10T08:43:40.887Z,-9.60
2023-03-10T08:46:08.770Z,-9.46
2023-03-10T08:48:35.567Z,-9.42
2023-03-10T08:51:02.080Z,-9.23
2023-03-10T08:53:28.671Z,-9.18
2023-03-10T08:55:55.213Z,-9.18
2023-03-10T08:58:23.029Z,-9.14
2023-03-10T09:00:49.505Z,-9.04
2023-03-10T09:03:16.553Z,-8.87
2023-03-10T09:05:43.127Z,-8.63
2023-03-10T09:08:10.014Z,-8.51
2023-03-10T09:10:37.067Z,-8.31
2023-03-10T09:13:13.396Z,-8.23
2023-03-10T09:15:41.581Z,-8.16
2023-03-10T09:18:08.744Z,-8.23
2023-03-10T09:20:35.885Z,-8.18
2023-03-10T09:23:02.837Z,-8.15
2023-03-10T09:25:30.741Z,-8.15
2023-03-10T09:27:57.589Z,-8.08
2023-03-10T09:30:24.984Z,-8.02
2023-03-10T09:32:51.983Z,-7.98
2023-03-10T09:35:19.130Z,-7.85
2023-03-10T09:37:45.600Z,-7.55
2023-03-10T09:40:18.882Z,-7.36
2023-03-10T09:42:47.009Z,-7.18
2023-03-10T09:45:33.630Z,-7.28
2023-03-10T09:48:13.466Z,-7.45
2023-03-10T09:50:56.741Z,-7.42
2023-03-10T09:53:38.431Z,-7.43
2023-03-10T09:56:12.160Z,-7.27
2023-03-10T09:58:41.217Z,-7.11
2023-03-10T10:01:15.759Z,-7.04
2023-03-10T10:03:53.380Z,-6.98
2023-03-10T10:06:28.985Z,-6.97
2023-03-10T10:09:07.452Z,-6.95
2023-03-10T10:11:37.104Z,-6.91
2023-03-10T10:14:31.448Z,-6.69
2023-03-10T10:17:01.312Z,-6.62
2023-03-10T10:19:28.464Z,-6.59
2023-03-10T10:21:57.993Z,-6.54
2023-03-10T10:24:26.325Z,-6.43
2023-03-10T10:26:52.932Z,-6.29
2023-03-10T10:29:23.869Z,-6.10
2023-03-10T10:32:06.821Z,-6.03
2023-03-10T10:34:33.749Z,-6.01
2023-03-10T10:37:00.572Z,-5.94
2023-03-10T10:39:34.503Z,-5.68
2023-03-10T10:42:12.973Z,-5.45
2023-03-10T10:44:42.969Z,-5.19
2023-03-10T10:47:29.208Z,-5.00
2023-03-10T10:50:08.476Z,-4.95
2023-03-10T10:52:35.121Z,-4.81
2023-03-10T10:55:02.460Z,-4.81
2023-03-10T10:57:33.438Z,-4.89
2023-03-10T11:00:13.510Z,-4.94
2023-03-10T11:02:40.027Z,-4.80
2023-03-10T11:05:15.361Z,-4.70
2023-03-10T11:07:42.456Z,-4.65
2023-03-10T11:10:13.330Z,-4.67
2023-03-10T11:12:45.880Z,-4.71
2023-03-10T11:15:12.425Z,-4.71
2023-03-10T11:17:57.643Z,-4.67
2023-03-10T11:20:24.345Z,-4.62
2023-03-10T11:22:53.811Z,-4.64
2023-03-10T11:25:27.020Z,-4.62
2023-03-10T11:28:12.541Z,-4.55
2023-03-10T11:30:43.232Z,-4.41
2023-03-10T11:33:18.799Z,-4.29
2023-03-10T11:35:48.793Z,-4.26
2023-03-10T11:38:32.761Z,-4.12
2023-03-10T11:41:02.760Z,-4.02
2023-03-10T11:43:47.760Z,-4.04
2023-03-10T11:46:23.393Z,-4.04
2023-03-10T11:48:55.153Z,-4.08
2023-03-10T11:51:41.039Z,-4.09
2023-03-10T11:54:20.427Z,-4.07
2023-03-10T11:56:48.609Z,-4.07
2023-03-10T11:59:15.318Z,-4.15
2023-03-10T12:01:53.780Z,-4.54
2023-03-10T12:04:29.169Z,-4.70
2023-03-10T12:07:10.736Z,-4.69
2023-03-10T12:09:37.184Z,-4.36
2023-03-10T12:12:05.094Z,-4.21
2023-03-10T12:14:32.369Z,-4.42
2023-03-10T12:17:01.043Z,-4.61
2023-03-10T12:19:27.494Z,-4.42
2023-03-10T12:22:12.725Z,-4.15
2023-03-10T12:24:45.058Z,-4.27
2023-03-10T12:27:11.594Z,-4.45
2023-03-10T12:29:39.253Z,-4.33
2023-03-10T12:32:23.150Z,-4.14
2023-03-10T12:35:09.533Z,-4.23
2023-03-10T12:37:36.037Z,-4.14
2023-03-10T12:40:02.517Z,-3.95
2023-03-10T12:42:35.379Z,-4.19
2023-03-10T12:45:15.457Z,-4.23
2023-03-10T12:47:48.767Z,-3.95
2023-03-10T12:50:19.566Z,-4.08
2023-03-10T12:52:53.149Z,-4.08
2023-03-10T12:55:19.694Z,-3.79
2023-03-10T12:57:48.910Z,-3.90
2023-03-10T13:00:34.237Z,-3.99
2023-03-10T13:03:05.143Z,-3.75
2023-03-10T13:05:33.876Z,-3.80
2023-03-10T13:08:03.023Z,-3.98
2023-03-10T13:10:31.683Z,-3.79
2023-03-10T13:13:02.226Z,-3.74
2023-03-10T13:15:29.844Z,-3.88
2023-03-10T13:18:16.543Z,-3.76
2023-03-10T13:20:43.051Z,-3.62
2023-03-10T13:23:27.713Z,-3.63
2023-03-10T13:25:59.940Z,-3.52
2023-03-10T13:28:27.847Z,-3.47
2023-03-10T13:31:17.103Z,-3.67
2023-03-10T13:33:52.667Z,-3.64
2023-03-10T13:36:41.701Z,-3.46
2023-03-10T13:39:15.972Z,-3.60
2023-03-10T13:41:47.809Z,-3.54
2023-03-10T13:44:18.599Z,-3.33
2023-03-10T13:46:53.205Z,-3.54
2023-03-10T13:49:22.136Z,-3.51
2023-03-10T13:51:54.026Z,-3.29
2023-03-10T13:54:22.159Z,-3.32
2023-03-10T13:56:50.388Z,-3.34
2023-03-10T13:59:19.946Z,-3.07
2023-03-10T14:01:48.265Z,-3.21
2023-03-10T14:04:17.347Z,-3.34
2023-03-10T14:06:43.843Z,-3.16
2023-03-10T14:09:17.937Z,-3.14
2023-03-10T14:11:46.881Z,-3.31
2023-03-10T14:14:15.625Z,-3.24
2023-03-10T14:16:51.063Z,-3.05
2023-03-10T14:19:38.084Z,-3.30
2023-03-10T14:22:24.788Z,-3.42
2023-03-10T14:24:51.686Z,-3.17
2023-03-10T14:27:18.796Z,-3.13
2023-03-10T14:29:53.195Z,-3.27
2023-03-10T14:32:20.098Z,-3.15
2023-03-10T14:34:47.401Z,-3.02
2023-03-10T14:37:15.331Z,-3.22
2023-03-10T14:39:41.856Z,-3.27
2023-03-10T14:42:19.030Z,-2.98
2023-03-10T14:44:45.765Z,-2.96
2023-03-10T14:47:12.374Z,-2.94
2023-03-10T14:49:39.584Z,-2.74
2023-03-10T14:52:10.741Z,-2.71
2023-03-10T14:54:37.187Z,-2.93
2023-03-10T14:57:04.060Z,-2.97
2023-03-10T14:59:30.566Z,-2.73
2023-03-10T15:01:57.653Z,-2.82
2023-03-10T15:04:24.373Z,-2.88
2023-03-10T15:06:50.863Z,-2.67
2023-03-10T15:09:17.442Z,-2.67
2023-03-10T15:11:45.397Z,-2.74
2023-03-10T15:14:18.916Z,-2.85
2023-03-10T15:16:45.715Z,-2.49
2023-03-10T15:19:18.242Z,-2.67
2023-03-10T15:21:44.785Z,-2.68
2023-03-10T15:24:11.265Z,-2.56
2023-03-10T15:26:38.173Z,-2.36
2023-03-10T15:29:04.689Z,-2.54
2023-03-10T15:31:31.236Z,-2.48
2023-03-10T15:33:57.875Z,-2.19
2023-03-10T15:36:25.553Z,-2.58
2023-03-10T15:38:52.972Z,-2.83
2023-03-10T15:41:19.457Z,-2.64
2023-03-10T15:43:47.274Z,-2.66
2023-03-10T15:46:13.872Z,-2.87
2023-03-10T15:48:40.345Z,-2.86
2023-03-10T15:51:10.603Z,-2.76
2023-03-10T15:53:37.343Z,-2.96
2023-03-10T15:56:07.671Z,-3.04
2023-03-10T15:58:34.970Z,-2.90
2023-03-10T16:01:06.254Z,-3.07
2023-03-10T16:03:34.197Z,-3.17
2023-03-10T16:06:00.676Z,-3.11
2023-03-10T16:08:27.163Z,-3.01
2023-03-10T16:10:54.610Z,-3.24
2023-03-10T16:13:23.154Z,-3.36
2023-03-10T16:15:50.905Z,-3.26
2023-03-10T16:18:17.445Z,-3.34
2023-03-10T16:20:43.918Z,-3.96
2023-03-10T16:23:10.482Z,-4.07
2023-03-10T16:25:37.967Z,-3.99
2023-03-10T16:28:04.469Z,-3.87
2023-03-10T16:30:32.221Z,-4.23
2023-03-10T16:33:02.105Z,-4.32
2023-03-10T16:35:28.824Z,-4.47
2023-03-10T16:37:56.623Z,-4.42
2023-03-10T16:40:23.130Z,-4.37
2023-03-10T16:42:49.970Z,-4.74
2023-03-10T16:45:16.555Z,-4.91
2023-03-10T16:47:44.078Z,-5.02
2023-03-10T16:50:12.722Z,-4.98
2023-03-10T16:52:39.936Z,-5.28
2023-03-10T16:55:08.844Z,-5.47
2023-03-10T16:57:36.091Z,-5.65
2023-03-10T17:00:02.624Z,-5.87
2023-03-10T17:02:29.130Z,-5.78
2023-03-10T17:04:55.571Z,-5.62
2023-03-10T17:07:23.301Z,-5.82
2023-03-10T17:09:49.808Z,-5.80
2023-03-10T17:12:16.358Z,-5.83
2023-03-10T17:14:44.027Z,-6.17
2023-03-10T17:17:10.482Z,-6.17
2023-03-10T17:19:36.963Z,-6.29
2023-03-10T17:22:04.780Z,-6.47
2023-03-10T17:24:31.434Z,-6.51
2023-03-10T17:26:58.483Z,-6.78
2023-03-10T17:29:24.947Z,-7.13
2023-03-10T17:31:51.786Z,-7.30
2023-03-10T17:34:19.184Z,-7.47
2023-03-10T17:36:46.794Z,-7.34
2023-03-10T17:39:19.769Z,-7.07
2023-03-10T17:41:46.906Z,-7.21
2023-03-10T17:44:13.724Z,-7.42
2023-03-10T17:46:44.657Z,-7.47
2023-03-10T17:49:12.422Z,-7.63
2023-03-10T17:51:40.748Z,-8.13
2023-03-10T17:54:07.441Z,-8.38
2023-03-10T17:56:33.992Z,-8.46
2023-03-10T17:59:00.582Z,-8.46
2023-03-10T18:01:28.675Z,-8.32
2023-03-10T18:03:56.316Z,-8.46
2023-03-10T18:06:24.717Z,-8.70
2023-03-10T18:08:51.923Z,-8.85
2023-03-10T18:11:20.530Z,-8.98
2023-03-10T18:13:47.361Z,-8.77
2023-03-10T18:16:23.537Z,-8.82
2023-03-10T18:18:50.124Z,-8.92
2023-03-10T18:21:18.182Z,-9.23
2023-03-10T18:23:45.650Z,-9.55
2023-03-10T18:26:14.135Z,-9.56
2023-03-10T18:28:41.159Z,-9.56
2023-03-10T18:31:08.735Z,-9.68
2023-03-10T18:33:37.259Z,-9.66
2023-03-10T18:36:05.398Z,-9.74
2023-03-10T18:38:33.053Z,-9.69
2023-03-10T18:41:02.085Z,-9.87
2023-03-10T18:43:35.205Z,-10.02
2023-03-10T18:46:03.944Z,-9.68
2023-03-10T18:48:30.752Z,-10.01
2023-03-10T18:50:58.576Z,-10.06
2023-03-10T18:53:27.540Z,-9.90
2023-03-10T18:55:54.649Z,-10.31
2023-03-10T18:58:21.881Z,-10.54
2023-03-10T19:00:48.527Z,-10.47
2023-03-10T19:03:15.179Z,-10.62
2023-03-10T19:05:43.157Z,-10.75
2023-03-10T19:08:11.532Z,-10.79
2023-03-10T19:10:39.445Z,-10.77
2023-03-10T19:13:06.112Z,-10.92
2023-03-10T19:15:32.586Z,-11.02
2023-03-10T19:17:59.069Z,-10.98
2023-03-10T19:20:26.762Z,-10.88
2023-03-10T19:22:53.250Z,-10.83
2023-03-10T19:25:20.672Z,-11.00
2023-03-10T19:27:48.990Z,-11.00
2023-03-10T19:30:17.270Z,-10.83
2023-03-10T19:32:44.734Z,-10.74
2023-03-10T19:35:12.845Z,-11.13
2023-03-10T19:37:43.118Z,-11.29
2023-03-10T19:40:14.225Z,-11.22
2023-03-10T19:42:44.299Z,-11.08
2023-03-10T19:45:11.959Z,-11.33
2023-03-10T19:47:39.950Z,-11.42
2023-03-10T19:50:07.983Z,-11.39
2023-03-10T19:52:34.496Z,-11.15
2023-03-10T19:55:02.297Z,-11.02
2023-03-10T19:57:28.790Z,-10.88
2023-03-10T19:59:55.316Z,-10.86
2023-03-10T20:02:21.954Z,-10.85
2023-03-10T20:04:50.448Z,-10.75
2023-03-10T20:07:17.841Z,-10.64
2023-03-10T20:09:45.593Z,-10.56
2023-03-10T20:12:13.474Z,-10.53
2023-03-10T20:14:39.905Z,-10.48
2023-03-10T20:17:07.561Z,-10.42
2023-03-10T20:19:34.047Z,-10.39
2023-03-10T20:22:01.935Z,-10.30
2023-03-10T20:24:29.836Z,-10.23
2023-03-10T20:26:58.519Z,-10.22
2023-03-10T20:29:25.398Z,-10.23
2023-03-10T20:31:52.103Z,-10.19
2023-03-10T20:34:21.754Z,-10.24
2023-03-10T20:36:49.835Z,-10.34
2023-03-10T20:39:16.420Z,-10.39
2023-03-10T20:41:45.033Z,-10.41
2023-03-10T20:44:14.231Z,-10.50
2023-03-10T20:46:41.865Z,-10.47
2023-03-10T20:49:08.408Z,-10.39
2023-03-10T20:51:35.030Z,-10.34
2023-03-10T20:54:01.651Z,-10.35
2023-03-10T20:56:30.405Z,-10.41
2023-03-10T20:58:59.881Z,-10.44
2023-03-10T21:01:26.745Z,-10.49
2023-03-10T21:03:57.885Z,-10.53
2023-03-10T21:06:26.475Z,-10.54
2023-03-10T21:08:53.144Z,-10.53
2023-03-10T21:11:21.033Z,-10.55
2023-03-10T21:13:47.489Z,-10.67
2023-03-10T21:16:15.525Z,-10.64
2023-03-10T21:18:42.087Z,-10.57
2023-03-10T21:21:09.789Z,-10.57
2023-03-10T21:23:37.210Z,-10.56
2023-03-10T21:26:09.962Z,-10.58
2023-03-10T21:28:37.087Z,-10.57
2023-03-10T21:31:04.528Z,-10.60
2023-03-10T21:33:31.091Z,-10.63
2023-03-10T21:35:57.592Z,-10.66
2023-03-10T21:38:24.074Z,-10.67
2023-03-10T21:40:50.537Z,-10.68
2023-03-10T21:43:17.234Z,-10.65
2023-03-10T21:45:43.695Z,-10.67
2023-03-10T21:48:11.631Z,-10.70
2023-03-10T21:50:38.416Z,-10.67
2023-03-10T21:53:06.766Z,-10.48
2023-03-10T21:55:34.556Z,-10.45
2023-03-10T21:58:02.500Z,-10.44
2023-03-10T22:00:30.046Z,-10.60
2023-03-10T22:02:56.545Z,-10.62
2023-03-10T22:05:23.019Z,-10.98
2023-03-10T22:07:49.747Z,-11.39
2023-03-10T22:10:18.032Z,-11.64
2023-03-10T22:12:46.112Z,-11.81
2023-03-10T22:15:15.157Z,-11.70
2023-03-10T22:17:41.594Z,-11.55
2023-03-10T22:20:08.709Z,-11.30
2023-03-10T22:22:35.173Z,-11.09
2023-03-10T22:25:02.193Z,-11.43
2023-03-10T22:27:29.065Z,-11.61
2023-03-10T22:29:55.505Z,-11.61
2023-03-10T22:32:22.042Z,-11.69
2023-03-10T22:34:48.566Z,-11.45
2023-03-10T22:37:15.085Z,-11.25
2023-03-10T22:39:41.531Z,-11.23
2023-03-10T22:42:08.066Z,-11.36
2023-03-10T22:44:36.246Z,-11.55
2023-03-10T22:47:02.835Z,-11.85
2023-03-10T22:49:29.651Z,-11.95
2023-03-10T22:51:56.195Z,-12.09
2023-03-10T22:54:22.759Z,-11.91
2023-03-10T22:56:49.209Z,-11.86
2023-03-10T22:59:15.702Z,-12.05
2023-03-10T23:01:42.180Z,-12.15
2023-03-10T23:04:08.692Z,-12.26
2023-03-10T23:06:35.814Z,-12.37
2023-03-10T23:09:06.099Z,-12.15
2023-03-10T23:11:32.852Z,-11.49
2023-03-10T23:14:04.664Z,-11.05
2023-03-10T23:16:37.488Z,-11.75
2023-03-10T23:19:07.202Z,-11.88
2023-03-10T23:21:36.596Z,-11.74
2023-03-10T23:24:04.450Z,-11.67
2023-03-10T23:26:32.771Z,-11.58
2023-03-10T23:28:59.624Z,-11.38
2023-03-10T23:31:26.173Z,-11.37
2023-03-10T23:33:52.692Z,-11.60
2023-03-10T23:36:19.193Z,-11.91
2023-03-10T23:38:45.810Z,-12.05
2023-03-10T23:41:13.794Z,-11.70
2023-03-10T23:43:40.304Z,-11.57
2023-03-10T23:46:07.703Z,-11.61
2023-03-10T23:48:36.385Z,-11.91
2023-03-10T23:51:03.113Z,-12.04
2023-03-10T23:53:31.118Z,-11.98
2023-03-10T23:55:58.946Z,-11.86
2023-03-10T23:58:28.128Z,-11.85
